sensor_id;sensor_type;location;lat;lon;timestamp;P1;durP1;ratioP1;P2;durP2;ratioP2
177;SDS011;77;48.792;9.032;2023-04-30T00:00:13;14.47;;;7.50;;
177;SDS011;77;48.792;9.032;2023-04-30T00:02:38;10.47;;;6.40;;
177;SDS011;77;48.792;9.032;2023-04-30T00:05:05;10.80;;;6.30;;
177;SDS011;77;48.792;9.032;2023-04-30T00:07:30;9.70;;;6.13;;
177;SDS011;77;48.792;9.032;2023-04-30T00:09:55;14.80;;;6.13;;
177;SDS011;77;48.792;9.032;2023-04-30T00:12:21;11.17;;;6.27;;
177;SDS011;77;48.792;9.032;2023-04-30T00:14:46;10.17;;;6.50;;
177;SDS011;77;48.792;9.032;2023-04-30T00:17:11;11.33;;;6.70;;
177;SDS011;77;48.792;9.032;2023-04-30T00:19:36;9.80;;;6.07;;
177;SDS011;77;48.792;9.032;2023-04-30T00:22:03;11.60;;;6.63;;
177;SDS011;77;48.792;9.032;2023-04-30T00:24:28;8.93;;;6.10;;
177;SDS011;77;48.792;9.032;2023-04-30T00:26:53;11.30;;;6.87;;
177;SDS011;77;48.792;9.032;2023-04-30T00:29:18;13.53;;;6.70;;
177;SDS011;77;48.792;9.032;2023-04-30T00:31:43;10.23;;;6.57;;
177;SDS011;77;48.792;9.032;2023-04-30T00:34:08;10.40;;;6.23;;
177;SDS011;77;48.792;9.032;2023-04-30T00:36:34;11.87;;;7.23;;
177;SDS011;77;48.792;9.032;2023-04-30T00:39:00;12.83;;;7.00;;
177;SDS011;77;48.792;9.032;2023-04-30T00:41:25;11.03;;;6.80;;
177;SDS011;77;48.792;9.032;2023-04-30T00:43:51;11.30;;;6.87;;
177;SDS011;77;48.792;9.032;2023-04-30T00:46:16;11.07;;;7.10;;
177;SDS011;77;48.792;9.032;2023-04-30T00:48:41;10.90;;;6.80;;
177;SDS011;77;48.792;9.032;2023-04-30T00:51:06;11.07;;;6.50;;
177;SDS011;77;48.792;9.032;2023-04-30T00:53:32;10.43;;;6.50;;
177;SDS011;77;48.792;9.032;2023-04-30T00:55:58;10.97;;;7.03;;
177;SDS011;77;48.792;9.032;2023-04-30T00:58:24;14.70;;;7.30;;
177;SDS011;77;48.792;9.032;2023-04-30T01:00:49;11.03;;;7.13;;
177;SDS011;77;48.792;9.032;2023-04-30T01:03:15;13.27;;;7.60;;
177;SDS011;77;48.792;9.032;2023-04-30T01:05:40;10.90;;;7.00;;
177;SDS011;77;48.792;9.032;2023-04-30T01:08:05;11.00;;;6.60;;
177;SDS011;77;48.792;9.032;2023-04-30T01:10:31;11.33;;;7.30;;
177;SDS011;77;48.792;9.032;2023-04-30T01:13:02;13.27;;;7.33;;
177;SDS011;77;48.792;9.032;2023-04-30T01:15:31;10.73;;;6.60;;
177;SDS011;77;48.792;9.032;2023-04-30T01:18:00;12.23;;;7.60;;
177;SDS011;77;48.792;9.032;2023-04-30T01:20:27;11.53;;;7.50;;
177;SDS011;77;48.792;9.032;2023-04-30T01:22:54;12.17;;;7.37;;
177;SDS011;77;48.792;9.032;2023-04-30T01:28:12;11.70;;;7.73;;
177;SDS011;77;48.792;9.032;2023-04-30T01:30:38;13.20;;;8.40;;
177;SDS011;77;48.792;9.032;2023-04-30T01:33:05;12.07;;;8.30;;
177;SDS011;77;48.792;9.032;2023-04-30T01:38:16;14.13;;;8.70;;
177;SDS011;77;48.792;9.032;2023-04-30T01:40:46;13.77;;;8.37;;
177;SDS011;77;48.792;9.032;2023-04-30T01:43:19;16.30;;;8.80;;
177;SDS011;77;48.792;9.032;2023-04-30T01:45:51;14.30;;;8.87;;
177;SDS011;77;48.792;9.032;2023-04-30T01:48:20;13.77;;;8.23;;
177;SDS011;77;48.792;9.032;2023-04-30T01:50:47;13.63;;;8.50;;
177;SDS011;77;48.792;9.032;2023-04-30T01:53:17;14.60;;;9.07;;
177;SDS011;77;48.792;9.032;2023-04-30T01:55:46;13.97;;;8.63;;
177;SDS011;77;48.792;9.032;2023-04-30T01:58:14;12.03;;;7.80;;
177;SDS011;77;48.792;9.032;2023-04-30T02:00:40;13.03;;;8.63;;
177;SDS011;77;48.792;9.032;2023-04-30T02:03:06;16.30;;;8.67;;
177;SDS011;77;48.792;9.032;2023-04-30T02:05:31;13.10;;;8.73;;
177;SDS011;77;48.792;9.032;2023-04-30T02:07:56;16.53;;;9.33;;
177;SDS011;77;48.792;9.032;2023-04-30T02:10:22;13.80;;;8.83;;
177;SDS011;77;48.792;9.032;2023-04-30T02:12:48;15.27;;;9.80;;
177;SDS011;77;48.792;9.032;2023-04-30T02:15:13;14.63;;;9.43;;
177;SDS011;77;48.792;9.032;2023-04-30T02:17:39;14.10;;;9.37;;
177;SDS011;77;48.792;9.032;2023-04-30T02:20:05;14.80;;;9.00;;
177;SDS011;77;48.792;9.032;2023-04-30T02:22:30;16.17;;;9.67;;
177;SDS011;77;48.792;9.032;2023-04-30T02:24:56;14.73;;;9.60;;
177;SDS011;77;48.792;9.032;2023-04-30T02:27:23;14.30;;;9.37;;
177;SDS011;77;48.792;9.032;2023-04-30T02:29:48;15.20;;;9.63;;
177;SDS011;77;48.792;9.032;2023-04-30T02:32:14;15.57;;;9.90;;
177;SDS011;77;48.792;9.032;2023-04-30T02:34:41;14.50;;;9.30;;
177;SDS011;77;48.792;9.032;2023-04-30T02:37:06;16.00;;;10.00;;
177;SDS011;77;48.792;9.032;2023-04-30T02:39:31;16.07;;;10.10;;
177;SDS011;77;48.792;9.032;2023-04-30T02:41:56;16.60;;;10.40;;
177;SDS011;77;48.792;9.032;2023-04-30T02:44:21;15.43;;;10.30;;
177;SDS011;77;48.792;9.032;2023-04-30T02:46:46;17.47;;;10.50;;
177;SDS011;77;48.792;9.032;2023-04-30T02:49:12;19.60;;;10.73;;
177;SDS011;77;48.792;9.032;2023-04-30T02:51:38;16.30;;;10.30;;
177;SDS011;77;48.792;9.032;2023-04-30T02:54:03;15.93;;;9.83;;
177;SDS011;77;48.792;9.032;2023-04-30T02:56:28;18.53;;;10.50;;
177;SDS011;77;48.792;9.032;2023-04-30T02:58:54;20.17;;;10.90;;
177;SDS011;77;48.792;9.032;2023-04-30T03:01:19;17.30;;;10.20;;
177;SDS011;77;48.792;9.032;2023-04-30T03:03:44;18.83;;;10.90;;
177;SDS011;77;48.792;9.032;2023-04-30T03:06:09;17.50;;;11.00;;
177;SDS011;77;48.792;9.032;2023-04-30T03:08:36;16.87;;;10.57;;
177;SDS011;77;48.792;9.032;2023-04-30T03:11:01;17.90;;;10.77;;
177;SDS011;77;48.792;9.032;2023-04-30T03:13:26;16.67;;;10.50;;
177;SDS011;77;48.792;9.032;2023-04-30T03:15:55;16.03;;;10.33;;
177;SDS011;77;48.792;9.032;2023-04-30T03:18:20;18.30;;;10.50;;
177;SDS011;77;48.792;9.032;2023-04-30T03:20:45;17.53;;;10.87;;
177;SDS011;77;48.792;9.032;2023-04-30T03:23:11;20.33;;;12.00;;
177;SDS011;77;48.792;9.032;2023-04-30T03:25:37;18.60;;;10.80;;
177;SDS011;77;48.792;9.032;2023-04-30T03:28:02;17.57;;;10.93;;
177;SDS011;77;48.792;9.032;2023-04-30T03:30:28;18.90;;;10.80;;
177;SDS011;77;48.792;9.032;2023-04-30T03:32:53;18.50;;;10.50;;
177;SDS011;77;48.792;9.032;2023-04-30T03:35:18;15.70;;;9.97;;
177;SDS011;77;48.792;9.032;2023-04-30T03:37:43;17.07;;;10.30;;
177;SDS011;77;48.792;9.032;2023-04-30T03:40:08;15.93;;;10.10;;
177;SDS011;77;48.792;9.032;2023-04-30T03:42:35;16.17;;;10.67;;
177;SDS011;77;48.792;9.032;2023-04-30T03:45:00;17.63;;;11.20;;
177;SDS011;77;48.792;9.032;2023-04-30T03:47:25;17.07;;;10.73;;
177;SDS011;77;48.792;9.032;2023-04-30T03:49:51;16.63;;;10.50;;
177;SDS011;77;48.792;9.032;2023-04-30T03:52:16;20.40;;;12.00;;
177;SDS011;77;48.792;9.032;2023-04-30T03:54:41;18.20;;;10.67;;
177;SDS011;77;48.792;9.032;2023-04-30T03:57:06;17.00;;;11.17;;
177;SDS011;77;48.792;9.032;2023-04-30T03:59:33;18.10;;;11.50;;
177;SDS011;77;48.792;9.032;2023-04-30T04:01:58;17.37;;;10.70;;
177;SDS011;77;48.792;9.032;2023-04-30T04:04:24;16.83;;;11.03;;
177;SDS011;77;48.792;9.032;2023-04-30T04:06:49;16.67;;;10.80;;
177;SDS011;77;48.792;9.032;2023-04-30T04:09:14;17.23;;;10.70;;
177;SDS011;77;48.792;9.032;2023-04-30T04:11:39;20.53;;;11.10;;
177;SDS011;77;48.792;9.032;2023-04-30T04:14:05;18.57;;;11.70;;
177;SDS011;77;48.792;9.032;2023-04-30T04:16:31;18.40;;;11.10;;
177;SDS011;77;48.792;9.032;2023-04-30T04:18:56;18.13;;;10.70;;
177;SDS011;77;48.792;9.032;2023-04-30T04:21:21;16.90;;;10.90;;
177;SDS011;77;48.792;9.032;2023-04-30T04:23:47;16.37;;;10.73;;
177;SDS011;77;48.792;9.032;2023-04-30T04:26:12;18.20;;;11.77;;
177;SDS011;77;48.792;9.032;2023-04-30T04:28:37;17.73;;;11.00;;
177;SDS011;77;48.792;9.032;2023-04-30T04:31:02;19.20;;;11.43;;
177;SDS011;77;48.792;9.032;2023-04-30T04:33:29;20.47;;;11.70;;
177;SDS011;77;48.792;9.032;2023-04-30T04:35:54;18.30;;;11.93;;
177;SDS011;77;48.792;9.032;2023-04-30T04:38:19;17.30;;;10.80;;
177;SDS011;77;48.792;9.032;2023-04-30T04:40:49;18.93;;;11.20;;
177;SDS011;77;48.792;9.032;2023-04-30T04:43:14;19.80;;;11.80;;
177;SDS011;77;48.792;9.032;2023-04-30T04:45:40;19.03;;;11.53;;
177;SDS011;77;48.792;9.032;2023-04-30T04:48:05;17.17;;;11.00;;
177;SDS011;77;48.792;9.032;2023-04-30T04:50:31;20.33;;;11.87;;
177;SDS011;77;48.792;9.032;2023-04-30T04:52:56;18.47;;;11.30;;
177;SDS011;77;48.792;9.032;2023-04-30T04:55:22;19.23;;;11.50;;
177;SDS011;77;48.792;9.032;2023-04-30T04:57:47;19.17;;;11.63;;
177;SDS011;77;48.792;9.032;2023-04-30T05:00:12;19.13;;;11.70;;
177;SDS011;77;48.792;9.032;2023-04-30T05:02:37;19.43;;;11.33;;
177;SDS011;77;48.792;9.032;2023-04-30T05:05:02;18.80;;;11.23;;
177;SDS011;77;48.792;9.032;2023-04-30T05:07:29;23.27;;;12.17;;
177;SDS011;77;48.792;9.032;2023-04-30T05:09:54;18.87;;;12.60;;
177;SDS011;77;48.792;9.032;2023-04-30T05:12:19;20.80;;;12.40;;
177;SDS011;77;48.792;9.032;2023-04-30T05:14:44;19.90;;;12.30;;
177;SDS011;77;48.792;9.032;2023-04-30T05:17:10;20.10;;;12.37;;
177;SDS011;77;48.792;9.032;2023-04-30T05:19:35;19.97;;;12.07;;
177;SDS011;77;48.792;9.032;2023-04-30T05:22:00;18.63;;;12.00;;
177;SDS011;77;48.792;9.032;2023-04-30T05:24:27;23.30;;;12.80;;
177;SDS011;77;48.792;9.032;2023-04-30T05:26:52;20.37;;;12.77;;
177;SDS011;77;48.792;9.032;2023-04-30T05:29:17;19.87;;;11.70;;
177;SDS011;77;48.792;9.032;2023-04-30T05:31:42;19.63;;;11.87;;
177;SDS011;77;48.792;9.032;2023-04-30T05:34:07;18.77;;;11.90;;
177;SDS011;77;48.792;9.032;2023-04-30T05:36:32;19.07;;;12.63;;
177;SDS011;77;48.792;9.032;2023-04-30T05:38:58;20.50;;;12.20;;
177;SDS011;77;48.792;9.032;2023-04-30T05:41:24;22.20;;;12.97;;
177;SDS011;77;48.792;9.032;2023-04-30T05:43:49;19.57;;;12.57;;
177;SDS011;77;48.792;9.032;2023-04-30T05:46:14;23.27;;;13.93;;
177;SDS011;77;48.792;9.032;2023-04-30T05:48:40;21.00;;;12.90;;
177;SDS011;77;48.792;9.032;2023-04-30T05:51:05;19.90;;;12.60;;
177;SDS011;77;48.792;9.032;2023-04-30T05:53:30;21.53;;;13.33;;
177;SDS011;77;48.792;9.032;2023-04-30T05:55:55;22.77;;;13.43;;
177;SDS011;77;48.792;9.032;2023-04-30T05:58:22;22.67;;;14.30;;
177;SDS011;77;48.792;9.032;2023-04-30T06:00:47;24.53;;;13.93;;
177;SDS011;77;48.792;9.032;2023-04-30T06:03:13;22.30;;;13.57;;
177;SDS011;77;48.792;9.032;2023-04-30T06:05:38;25.00;;;13.33;;
177;SDS011;77;48.792;9.032;2023-04-30T06:08:03;23.60;;;13.60;;
177;SDS011;77;48.792;9.032;2023-04-30T06:10:28;21.90;;;13.80;;
177;SDS011;77;48.792;9.032;2023-04-30T06:12:54;19.73;;;12.47;;
177;SDS011;77;48.792;9.032;2023-04-30T06:15:20;22.43;;;14.00;;
177;SDS011;77;48.792;9.032;2023-04-30T06:17:45;18.40;;;11.80;;
177;SDS011;77;48.792;9.032;2023-04-30T06:20:11;20.30;;;13.17;;
177;SDS011;77;48.792;9.032;2023-04-30T06:22:36;19.23;;;12.60;;
177;SDS011;77;48.792;9.032;2023-04-30T06:25:01;18.50;;;12.63;;
177;SDS011;77;48.792;9.032;2023-04-30T06:27:26;17.65;;;12.32;;
177;SDS011;77;48.792;9.032;2023-04-30T06:29:51;19.80;;;12.73;;
177;SDS011;77;48.792;9.032;2023-04-30T06:32:18;17.60;;;12.10;;
177;SDS011;77;48.792;9.032;2023-04-30T06:34:43;18.77;;;12.80;;
177;SDS011;77;48.792;9.032;2023-04-30T06:37:08;17.73;;;12.23;;
177;SDS011;77;48.792;9.032;2023-04-30T06:39:33;19.20;;;12.23;;
177;SDS011;77;48.792;9.032;2023-04-30T06:41:58;18.90;;;12.60;;
177;SDS011;77;48.792;9.032;2023-04-30T06:44:24;20.00;;;12.50;;
177;SDS011;77;48.792;9.032;2023-04-30T06:46:49;18.93;;;12.23;;
177;SDS011;77;48.792;9.032;2023-04-30T06:49:15;17.50;;;12.03;;
177;SDS011;77;48.792;9.032;2023-04-30T06:51:40;19.23;;;12.97;;
177;SDS011;77;48.792;9.032;2023-04-30T06:54:06;18.50;;;12.10;;
177;SDS011;77;48.792;9.032;2023-04-30T06:56:31;17.37;;;12.23;;
177;SDS011;77;48.792;9.032;2023-04-30T06:58:56;18.63;;;12.10;;
177;SDS011;77;48.792;9.032;2023-04-30T07:01:21;19.77;;;12.00;;
177;SDS011;77;48.792;9.032;2023-04-30T07:03:46;16.83;;;11.43;;
177;SDS011;77;48.792;9.032;2023-04-30T07:06:13;17.63;;;11.67;;
177;SDS011;77;48.792;9.032;2023-04-30T07:08:38;15.40;;;10.80;;
177;SDS011;77;48.792;9.032;2023-04-30T07:11:03;18.60;;;11.77;;
177;SDS011;77;48.792;9.032;2023-04-30T07:13:28;16.17;;;10.70;;
177;SDS011;77;48.792;9.032;2023-04-30T07:15:53;16.23;;;11.10;;
177;SDS011;77;48.792;9.032;2023-04-30T07:18:18;16.47;;;11.10;;
177;SDS011;77;48.792;9.032;2023-04-30T07:20:43;16.52;;;11.45;;
177;SDS011;77;48.792;9.032;2023-04-30T07:23:10;17.70;;;11.63;;
177;SDS011;77;48.792;9.032;2023-04-30T07:25:35;16.23;;;10.90;;
177;SDS011;77;48.792;9.032;2023-04-30T07:28:00;17.23;;;11.40;;
177;SDS011;77;48.792;9.032;2023-04-30T07:30:25;17.10;;;11.57;;
177;SDS011;77;48.792;9.032;2023-04-30T07:32:51;16.00;;;11.30;;
177;SDS011;77;48.792;9.032;2023-04-30T07:35:16;16.00;;;10.80;;
177;SDS011;77;48.792;9.032;2023-04-30T07:37:41;16.47;;;11.17;;
177;SDS011;77;48.792;9.032;2023-04-30T07:40:08;16.03;;;10.40;;
177;SDS011;77;48.792;9.032;2023-04-30T07:42:33;15.80;;;9.97;;
177;SDS011;77;48.792;9.032;2023-04-30T07:44:59;15.57;;;9.90;;
177;SDS011;77;48.792;9.032;2023-04-30T07:47:24;12.80;;;9.20;;
177;SDS011;77;48.792;9.032;2023-04-30T07:49:49;13.80;;;9.03;;
177;SDS011;77;48.792;9.032;2023-04-30T07:52:14;13.43;;;9.43;;
177;SDS011;77;48.792;9.032;2023-04-30T07:54:39;14.67;;;9.70;;
177;SDS011;77;48.792;9.032;2023-04-30T07:57:06;12.17;;;8.90;;
177;SDS011;77;48.792;9.032;2023-04-30T07:59:31;13.43;;;9.10;;
177;SDS011;77;48.792;9.032;2023-04-30T08:01:56;13.63;;;9.53;;
177;SDS011;77;48.792;9.032;2023-04-30T08:04:21;11.80;;;8.27;;
177;SDS011;77;48.792;9.032;2023-04-30T08:06:46;11.30;;;8.40;;
177;SDS011;77;48.792;9.032;2023-04-30T08:09:12;11.00;;;8.23;;
177;SDS011;77;48.792;9.032;2023-04-30T08:11:37;13.83;;;9.00;;
177;SDS011;77;48.792;9.032;2023-04-30T08:14:03;13.00;;;9.17;;
177;SDS011;77;48.792;9.032;2023-04-30T08:16:28;14.97;;;10.03;;
177;SDS011;77;48.792;9.032;2023-04-30T08:18:54;13.17;;;9.60;;
177;SDS011;77;48.792;9.032;2023-04-30T08:21:19;12.40;;;8.70;;
177;SDS011;77;48.792;9.032;2023-04-30T08:23:44;13.53;;;9.33;;
177;SDS011;77;48.792;9.032;2023-04-30T08:26:09;12.03;;;9.00;;
177;SDS011;77;48.792;9.032;2023-04-30T08:28:34;11.33;;;8.00;;
177;SDS011;77;48.792;9.032;2023-04-30T08:31:01;12.93;;;8.40;;
177;SDS011;77;48.792;9.032;2023-04-30T08:33:26;14.23;;;8.70;;
177;SDS011;77;48.792;9.032;2023-04-30T08:35:51;11.70;;;8.50;;
177;SDS011;77;48.792;9.032;2023-04-30T08:38:16;11.73;;;7.53;;
177;SDS011;77;48.792;9.032;2023-04-30T08:40:42;10.33;;;7.80;;
177;SDS011;77;48.792;9.032;2023-04-30T08:43:09;12.07;;;8.60;;
177;SDS011;77;48.792;9.032;2023-04-30T08:45:35;10.07;;;7.10;;
177;SDS011;77;48.792;9.032;2023-04-30T08:48:02;9.50;;;7.17;;
177;SDS011;77;48.792;9.032;2023-04-30T08:50:27;9.17;;;7.20;;
177;SDS011;77;48.792;9.032;2023-04-30T08:52:52;8.87;;;6.90;;
177;SDS011;77;48.792;9.032;2023-04-30T08:55:18;9.63;;;6.83;;
177;SDS011;77;48.792;9.032;2023-04-30T08:57:43;10.07;;;7.60;;
177;SDS011;77;48.792;9.032;2023-04-30T09:00:09;9.67;;;6.77;;
177;SDS011;77;48.792;9.032;2023-04-30T09:02:34;12.03;;;8.33;;
177;SDS011;77;48.792;9.032;2023-04-30T09:05:06;10.63;;;6.70;;
177;SDS011;77;48.792;9.032;2023-04-30T09:07:32;7.83;;;5.70;;
177;SDS011;77;48.792;9.032;2023-04-30T09:09:58;7.10;;;6.10;;
177;SDS011;77;48.792;9.032;2023-04-30T09:12:23;8.40;;;5.90;;
177;SDS011;77;48.792;9.032;2023-04-30T09:14:58;7.97;;;6.10;;
177;SDS011;77;48.792;9.032;2023-04-30T09:17:24;6.93;;;5.60;;
177;SDS011;77;48.792;9.032;2023-04-30T09:19:49;7.60;;;5.47;;
177;SDS011;77;48.792;9.032;2023-04-30T09:22:20;7.97;;;5.53;;
177;SDS011;77;48.792;9.032;2023-04-30T09:24:45;8.43;;;5.43;;
177;SDS011;77;48.792;9.032;2023-04-30T09:27:14;6.20;;;4.73;;
177;SDS011;77;48.792;9.032;2023-04-30T09:29:39;7.23;;;5.50;;
177;SDS011;77;48.792;9.032;2023-04-30T09:32:06;8.40;;;5.33;;
177;SDS011;77;48.792;9.032;2023-04-30T09:34:32;6.70;;;4.77;;
177;SDS011;77;48.792;9.032;2023-04-30T09:36:58;7.80;;;5.20;;
177;SDS011;77;48.792;9.032;2023-04-30T09:39:24;11.60;;;5.53;;
177;SDS011;77;48.792;9.032;2023-04-30T09:41:49;6.23;;;5.03;;
177;SDS011;77;48.792;9.032;2023-04-30T09:46:55;6.90;;;5.50;;
177;SDS011;77;48.792;9.032;2023-04-30T09:49:20;6.13;;;4.73;;
177;SDS011;77;48.792;9.032;2023-04-30T09:51:52;6.80;;;5.10;;
177;SDS011;77;48.792;9.032;2023-04-30T09:54:17;7.37;;;5.77;;
177;SDS011;77;48.792;9.032;2023-04-30T09:56:44;9.80;;;5.30;;
177;SDS011;77;48.792;9.032;2023-04-30T09:59:09;7.10;;;5.27;;
177;SDS011;77;48.792;9.032;2023-04-30T10:01:36;6.97;;;5.53;;
177;SDS011;77;48.792;9.032;2023-04-30T10:04:01;7.20;;;5.30;;
177;SDS011;77;48.792;9.032;2023-04-30T10:06:26;6.03;;;5.27;;
177;SDS011;77;48.792;9.032;2023-04-30T10:08:52;5.67;;;4.77;;
177;SDS011;77;48.792;9.032;2023-04-30T10:11:17;5.63;;;4.77;;
177;SDS011;77;48.792;9.032;2023-04-30T10:13:45;4.90;;;4.30;;
177;SDS011;77;48.792;9.032;2023-04-30T10:16:13;6.30;;;4.27;;
177;SDS011;77;48.792;9.032;2023-04-30T10:18:39;6.07;;;4.53;;
177;SDS011;77;48.792;9.032;2023-04-30T10:21:06;5.50;;;4.40;;
177;SDS011;77;48.792;9.032;2023-04-30T10:23:32;7.20;;;5.07;;
177;SDS011;77;48.792;9.032;2023-04-30T10:25:57;6.40;;;4.90;;
177;SDS011;77;48.792;9.032;2023-04-30T10:28:23;6.93;;;5.53;;
177;SDS011;77;48.792;9.032;2023-04-30T10:30:50;7.80;;;5.47;;
177;SDS011;77;48.792;9.032;2023-04-30T10:33:17;6.30;;;5.10;;
177;SDS011;77;48.792;9.032;2023-04-30T10:35:44;8.67;;;5.63;;
177;SDS011;77;48.792;9.032;2023-04-30T10:38:11;6.80;;;5.10;;
177;SDS011;77;48.792;9.032;2023-04-30T10:40:39;6.03;;;4.90;;
177;SDS011;77;48.792;9.032;2023-04-30T10:43:04;6.07;;;5.07;;
177;SDS011;77;48.792;9.032;2023-04-30T10:45:36;8.37;;;5.43;;
177;SDS011;77;48.792;9.032;2023-04-30T10:48:03;5.80;;;4.90;;
177;SDS011;77;48.792;9.032;2023-04-30T10:50:28;7.47;;;5.37;;
177;SDS011;77;48.792;9.032;2023-04-30T10:53:00;7.50;;;5.30;;
177;SDS011;77;48.792;9.032;2023-04-30T10:55:25;6.70;;;5.43;;
177;SDS011;77;48.792;9.032;2023-04-30T10:57:53;11.60;;;5.97;;
177;SDS011;77;48.792;9.032;2023-04-30T11:00:18;7.10;;;5.70;;
177;SDS011;77;48.792;9.032;2023-04-30T11:02:44;6.40;;;5.20;;
177;SDS011;77;48.792;9.032;2023-04-30T11:05:12;7.13;;;5.20;;
177;SDS011;77;48.792;9.032;2023-04-30T11:07:45;8.20;;;4.90;;
177;SDS011;77;48.792;9.032;2023-04-30T11:10:10;6.60;;;5.13;;
177;SDS011;77;48.792;9.032;2023-04-30T11:12:37;6.37;;;4.83;;
177;SDS011;77;48.792;9.032;2023-04-30T11:15:05;6.60;;;5.30;;
177;SDS011;77;48.792;9.032;2023-04-30T11:17:30;6.13;;;5.10;;
177;SDS011;77;48.792;9.032;2023-04-30T11:19:57;5.77;;;5.03;;
177;SDS011;77;48.792;9.032;2023-04-30T11:22:25;6.27;;;4.97;;
177;SDS011;77;48.792;9.032;2023-04-30T11:24:51;6.97;;;5.60;;
177;SDS011;77;48.792;9.032;2023-04-30T11:27:18;7.50;;;5.40;;
177;SDS011;77;48.792;9.032;2023-04-30T11:29:43;7.00;;;5.27;;
177;SDS011;77;48.792;9.032;2023-04-30T11:32:09;9.10;;;5.87;;
177;SDS011;77;48.792;9.032;2023-04-30T11:34:34;8.17;;;5.10;;
177;SDS011;77;48.792;9.032;2023-04-30T11:37:00;7.07;;;5.27;;
177;SDS011;77;48.792;9.032;2023-04-30T11:39:26;6.50;;;5.03;;
177;SDS011;77;48.792;9.032;2023-04-30T11:41:52;6.60;;;5.57;;
177;SDS011;77;48.792;9.032;2023-04-30T11:44:24;7.53;;;5.30;;
177;SDS011;77;48.792;9.032;2023-04-30T11:46:49;8.40;;;5.47;;
177;SDS011;77;48.792;9.032;2023-04-30T11:49:15;6.30;;;5.20;;
177;SDS011;77;48.792;9.032;2023-04-30T11:51:40;6.50;;;5.07;;
177;SDS011;77;48.792;9.032;2023-04-30T11:54:06;6.43;;;4.90;;
177;SDS011;77;48.792;9.032;2023-04-30T11:56:36;5.40;;;4.73;;
177;SDS011;77;48.792;9.032;2023-04-30T11:59:01;7.67;;;5.27;;
177;SDS011;77;48.792;9.032;2023-04-30T12:01:33;7.40;;;5.13;;
177;SDS011;77;48.792;9.032;2023-04-30T12:03:58;7.40;;;5.70;;
177;SDS011;77;48.792;9.032;2023-04-30T12:06:24;7.20;;;5.27;;
177;SDS011;77;48.792;9.032;2023-04-30T12:08:51;8.10;;;5.40;;
177;SDS011;77;48.792;9.032;2023-04-30T12:11:19;7.00;;;5.43;;
177;SDS011;77;48.792;9.032;2023-04-30T12:13:50;6.87;;;5.60;;
177;SDS011;77;48.792;9.032;2023-04-30T12:16:15;6.03;;;5.10;;
177;SDS011;77;48.792;9.032;2023-04-30T12:18:40;7.40;;;5.40;;
177;SDS011;77;48.792;9.032;2023-04-30T12:21:05;7.80;;;5.40;;
177;SDS011;77;48.792;9.032;2023-04-30T12:23:30;7.00;;;5.07;;
177;SDS011;77;48.792;9.032;2023-04-30T12:25:58;6.40;;;5.30;;
177;SDS011;77;48.792;9.032;2023-04-30T12:28:23;7.23;;;5.57;;
177;SDS011;77;48.792;9.032;2023-04-30T12:30:49;8.40;;;5.57;;
177;SDS011;77;48.792;9.032;2023-04-30T12:33:17;6.20;;;5.13;;
177;SDS011;77;48.792;9.032;2023-04-30T12:35:42;9.03;;;5.73;;
177;SDS011;77;48.792;9.032;2023-04-30T12:38:07;8.80;;;5.87;;
177;SDS011;77;48.792;9.032;2023-04-30T12:40:32;9.10;;;6.40;;
177;SDS011;77;48.792;9.032;2023-04-30T12:43:01;6.80;;;5.40;;
177;SDS011;77;48.792;9.032;2023-04-30T12:45:46;7.50;;;5.70;;
177;SDS011;77;48.792;9.032;2023-04-30T12:48:14;6.53;;;5.43;;
177;SDS011;77;48.792;9.032;2023-04-30T12:50:39;7.87;;;6.50;;
177;SDS011;77;48.792;9.032;2023-04-30T12:53:04;6.50;;;5.60;;
177;SDS011;77;48.792;9.032;2023-04-30T12:55:29;8.30;;;6.50;;
177;SDS011;77;48.792;9.032;2023-04-30T12:58:05;7.30;;;5.13;;
177;SDS011;77;48.792;9.032;2023-04-30T13:00:41;6.03;;;5.20;;
177;SDS011;77;48.792;9.032;2023-04-30T13:03:07;8.20;;;6.43;;
177;SDS011;77;48.792;9.032;2023-04-30T13:05:33;10.70;;;5.37;;
177;SDS011;77;48.792;9.032;2023-04-30T13:08:00;7.27;;;5.33;;
177;SDS011;77;48.792;9.032;2023-04-30T13:10:25;6.90;;;5.57;;
177;SDS011;77;48.792;9.032;2023-04-30T13:12:52;6.43;;;5.10;;
177;SDS011;77;48.792;9.032;2023-04-30T13:15:17;6.60;;;5.23;;
177;SDS011;77;48.792;9.032;2023-04-30T13:17:42;6.53;;;4.97;;
177;SDS011;77;48.792;9.032;2023-04-30T13:20:08;6.40;;;5.07;;
177;SDS011;77;48.792;9.032;2023-04-30T13:22:35;5.33;;;4.60;;
177;SDS011;77;48.792;9.032;2023-04-30T13:25:00;6.07;;;4.57;;
177;SDS011;77;48.792;9.032;2023-04-30T13:27:25;5.67;;;4.70;;
177;SDS011;77;48.792;9.032;2023-04-30T13:29:50;5.80;;;4.80;;
177;SDS011;77;48.792;9.032;2023-04-30T13:32:15;7.20;;;4.93;;
177;SDS011;77;48.792;9.032;2023-04-30T13:34:41;5.90;;;4.73;;
177;SDS011;77;48.792;9.032;2023-04-30T13:37:06;6.63;;;5.30;;
177;SDS011;77;48.792;9.032;2023-04-30T13:39:32;6.47;;;4.87;;
177;SDS011;77;48.792;9.032;2023-04-30T13:41:58;6.63;;;4.80;;
177;SDS011;77;48.792;9.032;2023-04-30T13:44:23;8.63;;;5.60;;
177;SDS011;77;48.792;9.032;2023-04-30T13:46:48;7.17;;;5.30;;
177;SDS011;77;48.792;9.032;2023-04-30T13:49:13;6.90;;;5.43;;
177;SDS011;77;48.792;9.032;2023-04-30T13:51:38;10.53;;;5.30;;
177;SDS011;77;48.792;9.032;2023-04-30T13:54:04;6.33;;;4.90;;
177;SDS011;77;48.792;9.032;2023-04-30T13:56:30;6.00;;;4.67;;
177;SDS011;77;48.792;9.032;2023-04-30T13:58:55;5.47;;;4.63;;
177;SDS011;77;48.792;9.032;2023-04-30T14:01:21;6.27;;;4.40;;
177;SDS011;77;48.792;9.032;2023-04-30T14:03:46;6.53;;;5.50;;
177;SDS011;77;48.792;9.032;2023-04-30T14:06:11;5.57;;;4.50;;
177;SDS011;77;48.792;9.032;2023-04-30T14:08:36;6.20;;;5.07;;
177;SDS011;77;48.792;9.032;2023-04-30T14:11:01;5.60;;;4.83;;
177;SDS011;77;48.792;9.032;2023-04-30T14:13:28;7.03;;;5.00;;
177;SDS011;77;48.792;9.032;2023-04-30T14:15:53;5.97;;;4.70;;
177;SDS011;77;48.792;9.032;2023-04-30T14:18:18;6.40;;;5.00;;
177;SDS011;77;48.792;9.032;2023-04-30T14:20:43;49.60;;;25.70;;
177;SDS011;77;48.792;9.032;2023-04-30T14:23:09;36.33;;;19.47;;
177;SDS011;77;48.792;9.032;2023-04-30T14:25:34;10.67;;;6.87;;
177;SDS011;77;48.792;9.032;2023-04-30T14:27:59;16.17;;;10.60;;
177;SDS011;77;48.792;9.032;2023-04-30T14:30:26;10.60;;;6.30;;
177;SDS011;77;48.792;9.032;2023-04-30T14:32:51;8.83;;;6.17;;
177;SDS011;77;48.792;9.032;2023-04-30T14:35:16;6.47;;;4.80;;
177;SDS011;77;48.792;9.032;2023-04-30T14:37:41;7.57;;;4.70;;
177;SDS011;77;48.792;9.032;2023-04-30T14:40:07;6.10;;;4.37;;
177;SDS011;77;48.792;9.032;2023-04-30T14:42:32;5.10;;;4.23;;
177;SDS011;77;48.792;9.032;2023-04-30T14:44:57;6.60;;;4.50;;
177;SDS011;77;48.792;9.032;2023-04-30T14:47:24;5.50;;;4.03;;
177;SDS011;77;48.792;9.032;2023-04-30T14:49:49;11.60;;;4.43;;
177;SDS011;77;48.792;9.032;2023-04-30T14:52:14;6.70;;;4.17;;
177;SDS011;77;48.792;9.032;2023-04-30T14:54:39;7.43;;;4.20;;
177;SDS011;77;48.792;9.032;2023-04-30T14:57:05;5.63;;;4.53;;
177;SDS011;77;48.792;9.032;2023-04-30T14:59:30;6.67;;;4.70;;
177;SDS011;77;48.792;9.032;2023-04-30T15:01:56;6.40;;;4.53;;
177;SDS011;77;48.792;9.032;2023-04-30T15:04:22;7.30;;;5.40;;
177;SDS011;77;48.792;9.032;2023-04-30T15:06:47;5.83;;;4.60;;
177;SDS011;77;48.792;9.032;2023-04-30T15:09:13;5.90;;;4.70;;
177;SDS011;77;48.792;9.032;2023-04-30T15:11:38;7.23;;;5.13;;
177;SDS011;77;48.792;9.032;2023-04-30T15:14:03;6.17;;;4.70;;
177;SDS011;77;48.792;9.032;2023-04-30T15:16:28;8.83;;;4.77;;
177;SDS011;77;48.792;9.032;2023-04-30T15:18:53;5.73;;;4.90;;
177;SDS011;77;48.792;9.032;2023-04-30T15:21:20;6.50;;;5.00;;
177;SDS011;77;48.792;9.032;2023-04-30T15:23:45;6.40;;;4.80;;
177;SDS011;77;48.792;9.032;2023-04-30T15:26:10;6.13;;;4.90;;
177;SDS011;77;48.792;9.032;2023-04-30T15:28:36;6.17;;;4.83;;
177;SDS011;77;48.792;9.032;2023-04-30T15:31:01;5.93;;;4.50;;
177;SDS011;77;48.792;9.032;2023-04-30T15:33:26;7.53;;;4.80;;
177;SDS011;77;48.792;9.032;2023-04-30T15:35:51;6.13;;;4.70;;
177;SDS011;77;48.792;9.032;2023-04-30T15:38:18;8.37;;;4.47;;
177;SDS011;77;48.792;9.032;2023-04-30T15:40:44;5.70;;;4.40;;
177;SDS011;77;48.792;9.032;2023-04-30T15:43:09;5.30;;;4.80;;
177;SDS011;77;48.792;9.032;2023-04-30T15:45:34;4.90;;;4.27;;